sensor_id;sensor_type;location;lat;lon;timestamp;P1;durP1;ratioP1;P2;durP2;ratioP2
20230;SDS011;10274;49.022;9.338;2023-04-21T00:00:48;6.17;;;4.80;;
20230;SDS011;10274;49.022;9.338;2023-04-21T00:03:15;6.43;;;4.80;;
20230;SDS011;10274;49.022;9.338;2023-04-21T00:05:43;6.37;;;4.73;;
20230;SDS011;10274;49.022;9.338;2023-04-21T00:08:10;6.17;;;4.90;;
20230;SDS011;10274;49.022;9.338;2023-04-21T00:10:38;7.60;;;5.23;;
20230;SDS011;10274;49.022;9.338;2023-04-21T00:15:33;7.30;;;5.37;;
20230;SDS011;10274;49.022;9.338;2023-04-21T00:18:00;6.47;;;5.00;;
20230;SDS011;10274;49.022;9.338;2023-04-21T00:20:27;7.30;;;5.27;;
20230;SDS011;10274;49.022;9.338;2023-04-21T00:22:55;5.57;;;4.97;;
20230;SDS011;10274;49.022;9.338;2023-04-21T00:25:22;5.80;;;5.07;;
20230;SDS011;10274;49.022;9.338;2023-04-21T00:27:50;5.87;;;4.90;;
20230;SDS011;10274;49.022;9.338;2023-04-21T00:30:17;6.60;;;5.20;;
20230;SDS011;10274;49.022;9.338;2023-04-21T00:32:44;5.77;;;4.80;;
20230;SDS011;10274;49.022;9.338;2023-04-21T00:35:11;7.17;;;5.37;;
20230;SDS011;10274;49.022;9.338;2023-04-21T00:37:38;5.97;;;4.10;;
20230;SDS011;10274;49.022;9.338;2023-04-21T00:40:06;5.23;;;4.73;;
20230;SDS011;10274;49.022;9.338;2023-04-21T00:42:33;6.40;;;4.77;;
20230;SDS011;10274;49.022;9.338;2023-04-21T00:45:01;5.77;;;4.60;;
20230;SDS011;10274;49.022;9.338;2023-04-21T00:47:28;5.93;;;4.87;;
20230;SDS011;10274;49.022;9.338;2023-04-21T00:49:55;6.00;;;4.17;;
20230;SDS011;10274;49.022;9.338;2023-04-21T00:52:22;5.47;;;4.23;;
20230;SDS011;10274;49.022;9.338;2023-04-21T00:54:49;5.63;;;4.50;;
20230;SDS011;10274;49.022;9.338;2023-04-21T00:57:17;5.30;;;4.20;;
20230;SDS011;10274;49.022;9.338;2023-04-21T00:59:45;4.67;;;4.13;;
20230;SDS011;10274;49.022;9.338;2023-04-21T01:02:14;5.90;;;4.30;;
20230;SDS011;10274;49.022;9.338;2023-04-21T01:04:41;5.27;;;4.33;;
20230;SDS011;10274;49.022;9.338;2023-04-21T01:07:09;4.73;;;3.93;;
20230;SDS011;10274;49.022;9.338;2023-04-21T01:09:36;7.17;;;4.83;;
20230;SDS011;10274;49.022;9.338;2023-04-21T01:12:03;4.97;;;4.20;;
20230;SDS011;10274;49.022;9.338;2023-04-21T01:14:31;7.83;;;4.90;;
20230;SDS011;10274;49.022;9.338;2023-04-21T01:16:58;6.73;;;4.50;;
20230;SDS011;10274;49.022;9.338;2023-04-21T01:19:27;5.20;;;4.57;;
20230;SDS011;10274;49.022;9.338;2023-04-21T01:21:58;7.13;;;4.90;;
20230;SDS011;10274;49.022;9.338;2023-04-21T01:24:34;5.53;;;4.37;;
20230;SDS011;10274;49.022;9.338;2023-04-21T01:27:01;5.30;;;4.20;;
20230;SDS011;10274;49.022;9.338;2023-04-21T01:29:30;5.30;;;4.60;;
20230;SDS011;10274;49.022;9.338;2023-04-21T01:31:58;5.57;;;4.63;;
20230;SDS011;10274;49.022;9.338;2023-04-21T01:34:29;5.03;;;4.03;;
20230;SDS011;10274;49.022;9.338;2023-04-21T01:36:55;5.10;;;4.13;;
20230;SDS011;10274;49.022;9.338;2023-04-21T01:39:23;6.17;;;4.53;;
20230;SDS011;10274;49.022;9.338;2023-04-21T01:41:50;6.70;;;4.80;;
20230;SDS011;10274;49.022;9.338;2023-04-21T01:44:19;4.13;;;3.73;;
20230;SDS011;10274;49.022;9.338;2023-04-21T01:46:46;5.67;;;4.57;;
20230;SDS011;10274;49.022;9.338;2023-04-21T01:49:12;4.57;;;4.13;;
20230;SDS011;10274;49.022;9.338;2023-04-21T01:51:39;5.57;;;4.23;;
20230;SDS011;10274;49.022;9.338;2023-04-21T01:54:06;5.03;;;3.97;;
20230;SDS011;10274;49.022;9.338;2023-04-21T01:56:34;4.73;;;3.87;;
20230;SDS011;10274;49.022;9.338;2023-04-21T01:59:01;6.23;;;4.27;;
20230;SDS011;10274;49.022;9.338;2023-04-21T02:01:28;5.63;;;4.20;;
20230;SDS011;10274;49.022;9.338;2023-04-21T02:03:54;4.67;;;3.87;;
20230;SDS011;10274;49.022;9.338;2023-04-21T02:06:21;6.33;;;4.33;;
20230;SDS011;10274;49.022;9.338;2023-04-21T02:08:48;5.60;;;4.10;;
20230;SDS011;10274;49.022;9.338;2023-04-21T02:11:14;5.83;;;4.90;;
20230;SDS011;10274;49.022;9.338;2023-04-21T02:13:42;6.33;;;4.37;;
20230;SDS011;10274;49.022;9.338;2023-04-21T02:16:09;5.23;;;3.77;;
20230;SDS011;10274;49.022;9.338;2023-04-21T02:18:36;4.50;;;3.73;;
20230;SDS011;10274;49.022;9.338;2023-04-21T02:21:04;4.57;;;3.60;;
20230;SDS011;10274;49.022;9.338;2023-04-21T02:23:31;6.30;;;4.60;;
20230;SDS011;10274;49.022;9.338;2023-04-21T02:25:57;5.50;;;4.33;;
20230;SDS011;10274;49.022;9.338;2023-04-21T02:28:24;7.93;;;5.13;;
20230;SDS011;10274;49.022;9.338;2023-04-21T02:30:52;5.07;;;4.20;;
20230;SDS011;10274;49.022;9.338;2023-04-21T02:33:19;5.13;;;4.10;;
20230;SDS011;10274;49.022;9.338;2023-04-21T02:35:45;5.10;;;4.20;;
20230;SDS011;10274;49.022;9.338;2023-04-21T02:38:12;3.87;;;3.33;;
20230;SDS011;10274;49.022;9.338;2023-04-21T02:40:39;5.13;;;4.53;;
20230;SDS011;10274;49.022;9.338;2023-04-21T02:43:06;4.97;;;4.47;;
20230;SDS011;10274;49.022;9.338;2023-04-21T02:45:33;5.00;;;4.13;;
20230;SDS011;10274;49.022;9.338;2023-04-21T02:48:03;5.83;;;4.50;;
20230;SDS011;10274;49.022;9.338;2023-04-21T02:50:29;3.87;;;3.47;;
20230;SDS011;10274;49.022;9.338;2023-04-21T02:52:56;4.43;;;3.70;;
20230;SDS011;10274;49.022;9.338;2023-04-21T02:55:23;5.90;;;4.47;;
20230;SDS011;10274;49.022;9.338;2023-04-21T02:57:50;6.83;;;3.97;;
20230;SDS011;10274;49.022;9.338;2023-04-21T03:00:17;5.57;;;3.87;;
20230;SDS011;10274;49.022;9.338;2023-04-21T03:02:44;5.67;;;4.50;;
20230;SDS011;10274;49.022;9.338;2023-04-21T03:05:12;5.80;;;4.70;;
20230;SDS011;10274;49.022;9.338;2023-04-21T03:07:39;4.33;;;3.83;;
20230;SDS011;10274;49.022;9.338;2023-04-21T03:10:06;4.47;;;3.80;;
20230;SDS011;10274;49.022;9.338;2023-04-21T03:12:33;5.53;;;4.30;;
20230;SDS011;10274;49.022;9.338;2023-04-21T03:14:59;5.83;;;4.20;;
20230;SDS011;10274;49.022;9.338;2023-04-21T03:17:26;5.10;;;4.60;;
20230;SDS011;10274;49.022;9.338;2023-04-21T03:19:53;4.93;;;3.77;;
20230;SDS011;10274;49.022;9.338;2023-04-21T03:22:21;4.63;;;3.90;;
20230;SDS011;10274;49.022;9.338;2023-04-21T03:24:48;5.30;;;4.17;;
20230;SDS011;10274;49.022;9.338;2023-04-21T03:27:14;6.40;;;4.40;;
20230;SDS011;10274;49.022;9.338;2023-04-21T03:29:41;5.30;;;4.37;;
20230;SDS011;10274;49.022;9.338;2023-04-21T03:32:08;4.23;;;3.57;;
20230;SDS011;10274;49.022;9.338;2023-04-21T03:34:34;7.60;;;5.00;;
20230;SDS011;10274;49.022;9.338;2023-04-21T03:37:01;4.87;;;4.07;;
20230;SDS011;10274;49.022;9.338;2023-04-21T03:39:29;4.97;;;3.90;;
20230;SDS011;10274;49.022;9.338;2023-04-21T03:41:55;4.33;;;3.80;;
20230;SDS011;10274;49.022;9.338;2023-04-21T03:44:23;5.83;;;3.70;;
20230;SDS011;10274;49.022;9.338;2023-04-21T03:46:51;5.87;;;4.60;;
20230;SDS011;10274;49.022;9.338;2023-04-21T03:49:18;6.23;;;4.93;;
20230;SDS011;10274;49.022;9.338;2023-04-21T03:51:44;6.03;;;4.27;;
20230;SDS011;10274;49.022;9.338;2023-04-21T03:54:11;4.87;;;3.97;;
20230;SDS011;10274;49.022;9.338;2023-04-21T03:56:39;4.70;;;3.93;;
20230;SDS011;10274;49.022;9.338;2023-04-21T03:59:06;5.57;;;3.97;;
20230;SDS011;10274;49.022;9.338;2023-04-21T04:01:33;4.43;;;3.77;;
20230;SDS011;10274;49.022;9.338;2023-04-21T04:04:00;5.83;;;4.50;;
20230;SDS011;10274;49.022;9.338;2023-04-21T04:06:27;5.93;;;4.80;;
20230;SDS011;10274;49.022;9.338;2023-04-21T04:08:53;6.23;;;4.53;;
20230;SDS011;10274;49.022;9.338;2023-04-21T04:11:20;6.10;;;4.20;;
20230;SDS011;10274;49.022;9.338;2023-04-21T04:13:48;5.57;;;4.13;;
20230;SDS011;10274;49.022;9.338;2023-04-21T04:16:15;5.40;;;4.53;;
20230;SDS011;10274;49.022;9.338;2023-04-21T04:18:42;5.50;;;4.10;;
20230;SDS011;10274;49.022;9.338;2023-04-21T04:21:09;5.57;;;4.73;;
20230;SDS011;10274;49.022;9.338;2023-04-21T04:23:36;4.87;;;3.87;;
20230;SDS011;10274;49.022;9.338;2023-04-21T04:26:03;5.23;;;3.87;;
20230;SDS011;10274;49.022;9.338;2023-04-21T04:28:30;5.23;;;4.03;;
20230;SDS011;10274;49.022;9.338;2023-04-21T04:30:58;5.87;;;4.60;;
20230;SDS011;10274;49.022;9.338;2023-04-21T04:33:27;5.47;;;4.33;;
20230;SDS011;10274;49.022;9.338;2023-04-21T04:35:54;5.57;;;4.40;;
20230;SDS011;10274;49.022;9.338;2023-04-21T04:38:22;5.77;;;4.27;;
20230;SDS011;10274;49.022;9.338;2023-04-21T04:40:52;5.43;;;3.93;;
20230;SDS011;10274;49.022;9.338;2023-04-21T04:43:19;5.30;;;4.00;;
20230;SDS011;10274;49.022;9.338;2023-04-21T04:45:45;5.90;;;3.93;;
20230;SDS011;10274;49.022;9.338;2023-04-21T04:48:13;4.37;;;3.73;;
20230;SDS011;10274;49.022;9.338;2023-04-21T04:50:40;5.73;;;4.13;;
20230;SDS011;10274;49.022;9.338;2023-04-21T04:53:07;5.47;;;4.23;;
20230;SDS011;10274;49.022;9.338;2023-04-21T04:55:34;4.30;;;3.57;;
20230;SDS011;10274;49.022;9.338;2023-04-21T04:58:01;5.13;;;4.17;;
20230;SDS011;10274;49.022;9.338;2023-04-21T05:00:27;5.43;;;4.10;;
20230;SDS011;10274;49.022;9.338;2023-04-21T05:02:55;6.57;;;4.83;;
20230;SDS011;10274;49.022;9.338;2023-04-21T05:05:23;5.07;;;4.57;;
20230;SDS011;10274;49.022;9.338;2023-04-21T05:07:50;5.70;;;4.47;;
20230;SDS011;10274;49.022;9.338;2023-04-21T05:10:17;5.90;;;4.53;;
20230;SDS011;10274;49.022;9.338;2023-04-21T05:12:44;6.40;;;4.67;;
20230;SDS011;10274;49.022;9.338;2023-04-21T05:15:10;6.40;;;4.30;;
20230;SDS011;10274;49.022;9.338;2023-04-21T05:17:37;6.40;;;5.40;;
20230;SDS011;10274;49.022;9.338;2023-04-21T05:20:04;5.57;;;4.53;;
20230;SDS011;10274;49.022;9.338;2023-04-21T05:22:35;5.40;;;4.87;;
20230;SDS011;10274;49.022;9.338;2023-04-21T05:25:02;6.20;;;4.33;;
20230;SDS011;10274;49.022;9.338;2023-04-21T05:27:30;5.33;;;3.90;;
20230;SDS011;10274;49.022;9.338;2023-04-21T05:29:58;6.87;;;4.73;;
20230;SDS011;10274;49.022;9.338;2023-04-21T05:32:24;7.87;;;4.17;;
20230;SDS011;10274;49.022;9.338;2023-04-21T05:34:51;5.50;;;4.70;;
20230;SDS011;10274;49.022;9.338;2023-04-21T05:37:19;6.13;;;4.60;;
20230;SDS011;10274;49.022;9.338;2023-04-21T05:39:47;7.77;;;5.13;;
20230;SDS011;10274;49.022;9.338;2023-04-21T05:42:13;7.90;;;5.30;;
20230;SDS011;10274;49.022;9.338;2023-04-21T05:44:42;6.13;;;5.50;;
20230;SDS011;10274;49.022;9.338;2023-04-21T05:47:09;7.10;;;5.37;;
20230;SDS011;10274;49.022;9.338;2023-04-21T05:49:35;6.73;;;5.17;;
20230;SDS011;10274;49.022;9.338;2023-04-21T05:52:02;5.93;;;4.53;;
20230;SDS011;10274;49.022;9.338;2023-04-21T05:54:29;6.60;;;5.20;;
20230;SDS011;10274;49.022;9.338;2023-04-21T05:56:57;7.80;;;5.50;;
20230;SDS011;10274;49.022;9.338;2023-04-21T05:59:25;7.40;;;5.40;;
20230;SDS011;10274;49.022;9.338;2023-04-21T06:01:52;7.77;;;6.40;;
20230;SDS011;10274;49.022;9.338;2023-04-21T06:04:18;8.33;;;6.00;;
20230;SDS011;10274;49.022;9.338;2023-04-21T06:06:45;7.73;;;5.87;;
20230;SDS011;10274;49.022;9.338;2023-04-21T06:09:11;10.33;;;6.10;;
20230;SDS011;10274;49.022;9.338;2023-04-21T06:11:39;11.73;;;6.30;;
20230;SDS011;10274;49.022;9.338;2023-04-21T06:14:07;10.17;;;7.00;;
20230;SDS011;10274;49.022;9.338;2023-04-21T06:16:34;9.17;;;6.90;;
20230;SDS011;10274;49.022;9.338;2023-04-21T06:19:01;9.50;;;7.63;;
20230;SDS011;10274;49.022;9.338;2023-04-21T06:21:27;10.57;;;7.57;;
20230;SDS011;10274;49.022;9.338;2023-04-21T06:23:54;10.40;;;7.20;;
20230;SDS011;10274;49.022;9.338;2023-04-21T06:26:21;9.10;;;7.37;;
20230;SDS011;10274;49.022;9.338;2023-04-21T06:28:48;10.23;;;6.90;;
20230;SDS011;10274;49.022;9.338;2023-04-21T06:31:16;9.83;;;7.23;;
20230;SDS011;10274;49.022;9.338;2023-04-21T06:33:43;9.10;;;6.73;;
20230;SDS011;10274;49.022;9.338;2023-04-21T06:36:10;10.23;;;6.67;;
20230;SDS011;10274;49.022;9.338;2023-04-21T06:38:37;9.67;;;7.43;;
20230;SDS011;10274;49.022;9.338;2023-04-21T06:41:05;10.07;;;6.77;;
20230;SDS011;10274;49.022;9.338;2023-04-21T06:43:32;10.67;;;6.63;;
20230;SDS011;10274;49.022;9.338;2023-04-21T06:45:58;8.30;;;5.83;;
20230;SDS011;10274;49.022;9.338;2023-04-21T06:48:27;8.83;;;6.63;;
20230;SDS011;10274;49.022;9.338;2023-04-21T06:50:54;9.43;;;6.23;;
20230;SDS011;10274;49.022;9.338;2023-04-21T06:53:20;7.13;;;5.63;;
20230;SDS011;10274;49.022;9.338;2023-04-21T06:55:47;7.37;;;5.97;;
20230;SDS011;10274;49.022;9.338;2023-04-21T06:58:14;8.07;;;5.40;;
20230;SDS011;10274;49.022;9.338;2023-04-21T07:00:41;7.53;;;5.87;;
20230;SDS011;10274;49.022;9.338;2023-04-21T07:03:07;8.10;;;6.17;;
20230;SDS011;10274;49.022;9.338;2023-04-21T07:05:35;8.50;;;5.93;;
20230;SDS011;10274;49.022;9.338;2023-04-21T07:08:02;7.23;;;6.17;;
20230;SDS011;10274;49.022;9.338;2023-04-21T07:10:29;12.90;;;7.10;;
20230;SDS011;10274;49.022;9.338;2023-04-21T07:12:56;8.57;;;6.47;;
20230;SDS011;10274;49.022;9.338;2023-04-21T07:15:22;8.00;;;5.90;;
20230;SDS011;10274;49.022;9.338;2023-04-21T07:17:49;7.47;;;5.80;;
20230;SDS011;10274;49.022;9.338;2023-04-21T07:20:16;7.10;;;5.27;;
20230;SDS011;10274;49.022;9.338;2023-04-21T07:22:44;7.63;;;5.63;;
20230;SDS011;10274;49.022;9.338;2023-04-21T07:25:10;7.83;;;5.83;;
20230;SDS011;10274;49.022;9.338;2023-04-21T07:27:37;5.87;;;4.80;;
20230;SDS011;10274;49.022;9.338;2023-04-21T07:30:04;9.10;;;5.97;;
20230;SDS011;10274;49.022;9.338;2023-04-21T07:32:32;9.00;;;5.90;;
20230;SDS011;10274;49.022;9.338;2023-04-21T07:34:59;11.13;;;6.00;;
20230;SDS011;10274;49.022;9.338;2023-04-21T07:37:26;6.80;;;5.07;;
20230;SDS011;10274;49.022;9.338;2023-04-21T07:39:54;8.30;;;5.87;;
20230;SDS011;10274;49.022;9.338;2023-04-21T07:42:21;7.07;;;5.40;;
20230;SDS011;10274;49.022;9.338;2023-04-21T07:44:48;6.93;;;5.23;;
20230;SDS011;10274;49.022;9.338;2023-04-21T07:47:15;7.43;;;5.90;;
20230;SDS011;10274;49.022;9.338;2023-04-21T07:49:41;6.17;;;4.87;;
20230;SDS011;10274;49.022;9.338;2023-04-21T07:52:08;6.27;;;4.80;;
20230;SDS011;10274;49.022;9.338;2023-04-21T07:54:35;7.17;;;5.40;;
20230;SDS011;10274;49.022;9.338;2023-04-21T07:57:03;8.17;;;5.87;;
20230;SDS011;10274;49.022;9.338;2023-04-21T07:59:31;7.13;;;5.53;;
20230;SDS011;10274;49.022;9.338;2023-04-21T08:01:57;6.43;;;4.23;;
20230;SDS011;10274;49.022;9.338;2023-04-21T08:04:24;7.60;;;6.00;;
20230;SDS011;10274;49.022;9.338;2023-04-21T08:06:51;6.63;;;5.10;;
20230;SDS011;10274;49.022;9.338;2023-04-21T08:09:17;7.03;;;5.33;;
20230;SDS011;10274;49.022;9.338;2023-04-21T08:11:44;7.10;;;5.67;;
20230;SDS011;10274;49.022;9.338;2023-04-21T08:14:12;8.77;;;5.47;;
20230;SDS011;10274;49.022;9.338;2023-04-21T08:16:39;8.73;;;5.07;;
20230;SDS011;10274;49.022;9.338;2023-04-21T08:19:06;8.70;;;5.10;;
20230;SDS011;10274;49.022;9.338;2023-04-21T08:21:33;7.30;;;5.07;;
20230;SDS011;10274;49.022;9.338;2023-04-21T08:23:59;8.13;;;6.10;;
20230;SDS011;10274;49.022;9.338;2023-04-21T08:26:26;6.47;;;5.00;;
20230;SDS011;10274;49.022;9.338;2023-04-21T08:28:54;8.07;;;5.17;;
20230;SDS011;10274;49.022;9.338;2023-04-21T08:31:22;8.17;;;5.30;;
20230;SDS011;10274;49.022;9.338;2023-04-21T08:33:48;8.20;;;5.67;;
20230;SDS011;10274;49.022;9.338;2023-04-21T08:36:15;7.97;;;5.27;;
20230;SDS011;10274;49.022;9.338;2023-04-21T08:38:42;7.90;;;5.77;;
20230;SDS011;10274;49.022;9.338;2023-04-21T08:41:09;6.53;;;5.10;;
20230;SDS011;10274;49.022;9.338;2023-04-21T08:43:36;6.57;;;4.70;;
20230;SDS011;10274;49.022;9.338;2023-04-21T08:46:04;5.30;;;3.90;;
20230;SDS011;10274;49.022;9.338;2023-04-21T08:48:34;4.37;;;3.23;;
20230;SDS011;10274;49.022;9.338;2023-04-21T08:51:01;5.60;;;4.10;;
20230;SDS011;10274;49.022;9.338;2023-04-21T08:53:28;5.03;;;3.63;;
20230;SDS011;10274;49.022;9.338;2023-04-21T08:55:55;5.53;;;3.73;;
20230;SDS011;10274;49.022;9.338;2023-04-21T08:58:22;4.47;;;3.50;;
20230;SDS011;10274;49.022;9.338;2023-04-21T09:00:48;5.13;;;3.63;;
20230;SDS011;10274;49.022;9.338;2023-04-21T09:03:20;3.40;;;3.00;;
20230;SDS011;10274;49.022;9.338;2023-04-21T09:05:56;4.00;;;3.23;;
20230;SDS011;10274;49.022;9.338;2023-04-21T09:08:24;2.07;;;1.87;;
20230;SDS011;10274;49.022;9.338;2023-04-21T09:10:52;3.13;;;2.73;;
20230;SDS011;10274;49.022;9.338;2023-04-21T09:13:19;3.60;;;3.05;;
20230;SDS011;10274;49.022;9.338;2023-04-21T09:15:47;3.07;;;2.53;;
20230;SDS011;10274;49.022;9.338;2023-04-21T09:18:16;3.17;;;2.53;;
20230;SDS011;10274;49.022;9.338;2023-04-21T09:20:44;2.93;;;2.57;;
20230;SDS011;10274;49.022;9.338;2023-04-21T09:23:13;3.37;;;2.30;;
20230;SDS011;10274;49.022;9.338;2023-04-21T09:25:40;3.57;;;3.00;;
20230;SDS011;10274;49.022;9.338;2023-04-21T09:28:08;3.63;;;2.70;;
20230;SDS011;10274;49.022;9.338;2023-04-21T09:30:36;4.07;;;3.10;;
20230;SDS011;10274;49.022;9.338;2023-04-21T09:33:03;3.75;;;2.80;;
20230;SDS011;10274;49.022;9.338;2023-04-21T09:35:31;4.30;;;3.10;;
20230;SDS011;10274;49.022;9.338;2023-04-21T09:37:59;3.77;;;3.37;;
20230;SDS011;10274;49.022;9.338;2023-04-21T09:40:28;3.80;;;3.40;;
20230;SDS011;10274;49.022;9.338;2023-04-21T09:42:55;3.73;;;2.80;;
20230;SDS011;10274;49.022;9.338;2023-04-21T09:45:22;3.97;;;2.80;;
20230;SDS011;10274;49.022;9.338;2023-04-21T09:47:54;4.30;;;3.00;;
20230;SDS011;10274;49.022;9.338;2023-04-21T09:50:22;3.50;;;3.20;;
20230;SDS011;10274;49.022;9.338;2023-04-21T09:52:50;3.60;;;3.00;;
20230;SDS011;10274;49.022;9.338;2023-04-21T09:55:18;3.13;;;2.80;;
20230;SDS011;10274;49.022;9.338;2023-04-21T09:57:48;4.90;;;3.47;;
20230;SDS011;10274;49.022;9.338;2023-04-21T10:00:17;4.60;;;3.17;;
20230;SDS011;10274;49.022;9.338;2023-04-21T10:02:46;4.30;;;2.90;;
20230;SDS011;10274;49.022;9.338;2023-04-21T10:05:14;5.47;;;3.60;;
20230;SDS011;10274;49.022;9.338;2023-04-21T10:07:42;3.95;;;3.53;;
20230;SDS011;10274;49.022;9.338;2023-04-21T10:10:11;4.90;;;3.43;;
20230;SDS011;10274;49.022;9.338;2023-04-21T10:12:41;3.67;;;3.00;;
20230;SDS011;10274;49.022;9.338;2023-04-21T10:18:09;5.47;;;3.07;;
20230;SDS011;10274;49.022;9.338;2023-04-21T10:20:49;3.47;;;3.03;;
20230;SDS011;10274;49.022;9.338;2023-04-21T10:23:24;2.73;;;2.33;;
20230;SDS011;10274;49.022;9.338;2023-04-21T10:25:52;4.93;;;3.13;;
20230;SDS011;10274;49.022;9.338;2023-04-21T10:28:19;3.67;;;2.97;;
20230;SDS011;10274;49.022;9.338;2023-04-21T10:30:47;6.00;;;3.33;;
20230;SDS011;10274;49.022;9.338;2023-04-21T10:33:14;3.50;;;2.90;;
20230;SDS011;10274;49.022;9.338;2023-04-21T10:35:56;4.13;;;2.80;;
20230;SDS011;10274;49.022;9.338;2023-04-21T10:38:33;3.37;;;2.50;;
20230;SDS011;10274;49.022;9.338;2023-04-21T10:41:07;2.73;;;2.50;;
20230;SDS011;10274;49.022;9.338;2023-04-21T10:43:51;2.90;;;2.40;;
20230;SDS011;10274;49.022;9.338;2023-04-21T10:46:34;3.47;;;2.97;;
20230;SDS011;10274;49.022;9.338;2023-04-21T10:49:05;2.87;;;2.33;;
20230;SDS011;10274;49.022;9.338;2023-04-21T10:51:34;3.33;;;2.80;;
20230;SDS011;10274;49.022;9.338;2023-04-21T10:54:35;3.40;;;2.50;;
20230;SDS011;10274;49.022;9.338;2023-04-21T10:57:06;3.83;;;2.50;;
20230;SDS011;10274;49.022;9.338;2023-04-21T10:59:35;4.27;;;3.43;;
20230;SDS011;10274;49.022;9.338;2023-04-21T11:02:03;3.10;;;2.80;;
20230;SDS011;10274;49.022;9.338;2023-04-21T11:04:31;3.23;;;2.90;;
20230;SDS011;10274;49.022;9.338;2023-04-21T11:07:05;4.33;;;2.97;;
20230;SDS011;10274;49.022;9.338;2023-04-21T11:09:32;3.90;;;2.80;;
20230;SDS011;10274;49.022;9.338;2023-04-21T11:12:00;5.27;;;3.20;;
20230;SDS011;10274;49.022;9.338;2023-04-21T11:14:28;3.43;;;2.90;;
20230;SDS011;10274;49.022;9.338;2023-04-21T11:16:55;4.07;;;2.70;;
20230;SDS011;10274;49.022;9.338;2023-04-21T11:19:23;3.80;;;2.83;;
20230;SDS011;10274;49.022;9.338;2023-04-21T11:21:50;3.60;;;2.83;;
20230;SDS011;10274;49.022;9.338;2023-04-21T11:24:19;4.70;;;3.30;;
20230;SDS011;10274;49.022;9.338;2023-04-21T11:26:46;4.73;;;3.30;;
20230;SDS011;10274;49.022;9.338;2023-04-21T11:29:13;4.60;;;3.10;;
20230;SDS011;10274;49.022;9.338;2023-04-21T11:31:42;5.07;;;3.07;;
20230;SDS011;10274;49.022;9.338;2023-04-21T11:34:11;3.43;;;2.83;;
20230;SDS011;10274;49.022;9.338;2023-04-21T11:36:42;4.20;;;2.90;;
20230;SDS011;10274;49.022;9.338;2023-04-21T11:39:11;4.10;;;3.07;;
20230;SDS011;10274;49.022;9.338;2023-04-21T11:41:40;4.10;;;3.07;;
20230;SDS011;10274;49.022;9.338;2023-04-21T11:44:08;3.87;;;2.93;;
20230;SDS011;10274;49.022;9.338;2023-04-21T11:46:35;3.97;;;3.43;;
20230;SDS011;10274;49.022;9.338;2023-04-21T11:49:02;3.60;;;3.17;;
20230;SDS011;10274;49.022;9.338;2023-04-21T11:51:33;4.03;;;2.87;;
20230;SDS011;10274;49.022;9.338;2023-04-21T11:54:03;3.53;;;2.93;;
20230;SDS011;10274;49.022;9.338;2023-04-21T11:56:33;3.87;;;3.10;;
20230;SDS011;10274;49.022;9.338;2023-04-21T11:59:04;4.63;;;3.43;;
20230;SDS011;10274;49.022;9.338;2023-04-21T12:01:32;3.90;;;3.03;;
20230;SDS011;10274;49.022;9.338;2023-04-21T12:03:59;4.30;;;3.30;;
20230;SDS011;10274;49.022;9.338;2023-04-21T12:06:28;3.40;;;3.03;;
20230;SDS011;10274;49.022;9.338;2023-04-21T12:08:55;5.37;;;3.67;;
20230;SDS011;10274;49.022;9.338;2023-04-21T12:11:27;5.43;;;3.90;;
20230;SDS011;10274;49.022;9.338;2023-04-21T12:13:55;4.80;;;3.50;;
20230;SDS011;10274;49.022;9.338;2023-04-21T12:16:23;3.97;;;2.70;;
20230;SDS011;10274;49.022;9.338;2023-04-21T12:18:51;3.57;;;2.90;;
20230;SDS011;10274;49.022;9.338;2023-04-21T12:21:17;3.30;;;3.00;;
20230;SDS011;10274;49.022;9.338;2023-04-21T12:23:44;3.60;;;2.90;;
20230;SDS011;10274;49.022;9.338;2023-04-21T12:26:11;3.80;;;2.97;;
20230;SDS011;10274;49.022;9.338;2023-04-21T12:28:39;3.97;;;2.70;;
20230;SDS011;10274;49.022;9.338;2023-04-21T12:31:05;4.07;;;2.80;;
20230;SDS011;10274;49.022;9.338;2023-04-21T12:33:32;3.30;;;2.70;;
20230;SDS011;10274;49.022;9.338;2023-04-21T12:35:59;3.73;;;3.07;;
20230;SDS011;10274;49.022;9.338;2023-04-21T12:38:26;5.67;;;3.07;;
20230;SDS011;10274;49.022;9.338;2023-04-21T12:40:52;4.60;;;3.60;;
20230;SDS011;10274;49.022;9.338;2023-04-21T12:43:19;4.83;;;2.90;;
20230;SDS011;10274;49.022;9.338;2023-04-21T12:45:47;4.17;;;3.33;;
20230;SDS011;10274;49.022;9.338;2023-04-21T12:48:14;4.90;;;2.87;;
20230;SDS011;10274;49.022;9.338;2023-04-21T12:50:41;4.37;;;3.50;;
20230;SDS011;10274;49.022;9.338;2023-04-21T12:53:08;4.87;;;3.20;;
20230;SDS011;10274;49.022;9.338;2023-04-21T12:55:34;3.30;;;2.80;;
20230;SDS011;10274;49.022;9.338;2023-04-21T12:58:01;3.40;;;2.67;;
20230;SDS011;10274;49.022;9.338;2023-04-21T13:00:28;3.63;;;2.30;;
20230;SDS011;10274;49.022;9.338;2023-04-21T13:02:56;3.27;;;2.80;;
20230;SDS011;10274;49.022;9.338;2023-04-21T13:05:22;2.53;;;2.17;;
20230;SDS011;10274;49.022;9.338;2023-04-21T13:07:49;4.17;;;2.57;;
20230;SDS011;10274;49.022;9.338;2023-04-21T13:10:16;3.37;;;2.70;;
20230;SDS011;10274;49.022;9.338;2023-04-21T13:12:42;3.40;;;2.80;;
20230;SDS011;10274;49.022;9.338;2023-04-21T13:15:09;4.77;;;2.90;;
20230;SDS011;10274;49.022;9.338;2023-04-21T13:17:37;2.97;;;2.67;;
20230;SDS011;10274;49.022;9.338;2023-04-21T13:20:05;3.17;;;2.53;;
20230;SDS011;10274;49.022;9.338;2023-04-21T13:22:32;4.10;;;2.77;;
20230;SDS011;10274;49.022;9.338;2023-04-21T13:24:59;4.23;;;2.50;;
20230;SDS011;10274;49.022;9.338;2023-04-21T13:27:26;3.53;;;2.40;;
20230;SDS011;10274;49.022;9.338;2023-04-21T13:29:53;3.23;;;2.47;;
20230;SDS011;10274;49.022;9.338;2023-04-21T13:32:19;2.37;;;2.17;;
20230;SDS011;10274;49.022;9.338;2023-04-21T13:34:46;3.00;;;2.40;;
20230;SDS011;10274;49.022;9.338;2023-04-21T13:37:14;3.57;;;2.80;;
20230;SDS011;10274;49.022;9.338;2023-04-21T13:39:41;3.57;;;2.60;;
20230;SDS011;10274;49.022;9.338;2023-04-21T13:42:08;3.80;;;2.70;;
20230;SDS011;10274;49.022;9.338;2023-04-21T13:44:35;3.50;;;2.33;;
20230;SDS011;10274;49.022;9.338;2023-04-21T13:47:02;1.83;;;1.63;;
20230;SDS011;10274;49.022;9.338;2023-04-21T13:49:28;2.70;;;2.07;;
20230;SDS011;10274;49.022;9.338;2023-04-21T13:51:55;3.63;;;2.23;;
20230;SDS011;10274;49.022;9.338;2023-04-21T13:54:23;2.80;;;2.20;;
20230;SDS011;10274;49.022;9.338;2023-04-21T13:56:50;2.20;;;2.00;;
20230;SDS011;10274;49.022;9.338;2023-04-21T13:59:17;2.20;;;2.00;;
20230;SDS011;10274;49.022;9.338;2023-04-21T14:01:45;1.87;;;1.63;;
20230;SDS011;10274;49.022;9.338;2023-04-21T14:04:11;2.63;;;2.30;;
20230;SDS011;10274;49.022;9.338;2023-04-21T14:06:38;2.20;;;2.00;;
20230;SDS011;10274;49.022;9.338;2023-04-21T14:09:05;2.50;;;2.30;;
20230;SDS011;10274;49.022;9.338;2023-04-21T14:11:34;2.60;;;1.90;;
20230;SDS011;10274;49.022;9.338;2023-04-21T14:14:01;3.07;;;2.37;;
20230;SDS011;10274;49.022;9.338;2023-04-21T14:16:28;2.10;;;1.90;;
20230;SDS011;10274;49.022;9.338;2023-04-21T14:18:54;1.90;;;1.70;;
20230;SDS011;10274;49.022;9.338;2023-04-21T14:21:21;3.03;;;1.93;;
20230;SDS011;10274;49.022;9.338;2023-04-21T14:23:48;2.63;;;2.13;;
20230;SDS011;10274;49.022;9.338;2023-04-21T14:26:14;3.53;;;2.40;;
20230;SDS011;10274;49.022;9.338;2023-04-21T14:28:42;2.00;;;1.80;;
20230;SDS011;10274;49.022;9.338;2023-04-21T14:31:09;2.60;;;2.30;;
20230;SDS011;10274;49.022;9.338;2023-04-21T14:33:36;4.27;;;1.90;;
20230;SDS011;10274;49.022;9.338;2023-04-21T14:36:03;1.77;;;1.67;;
20230;SDS011;10274;49.022;9.338;2023-04-21T14:38:30;2.00;;;1.80;;
20230;SDS011;10274;49.022;9.338;2023-04-21T14:40:58;1.60;;;1.50;;
20230;SDS011;10274;49.022;9.338;2023-04-21T14:43:25;1.80;;;1.57;;
20230;SDS011;10274;49.022;9.338;2023-04-21T14:45:53;2.37;;;2.17;;
20230;SDS011;10274;49.022;9.338;2023-04-21T14:48:20;1.80;;;1.70;;
20230;SDS011;10274;49.022;9.338;2023-04-21T14:50:47;2.23;;;1.40;;
20230;SDS011;10274;49.022;9.338;2023-04-21T14:53:13;1.57;;;1.47;;
20230;SDS011;10274;49.022;9.338;2023-04-21T14:55:40;1.80;;;1.53;;